Time;durP1;ratioP1;P1;durP2;ratioP2;P2;SDS_P1;SDS_P2;PMS_P1;PMS_P2;Temp;Humidity;BMP_temperature;BMP_pressure;BME280_temperature;BME280_humidity;BME280_pressure;Samples;Min_cycle;Max_cycle;Signal;HPM_P1;HPM_P2
2021/09/23 00:01:53;;;;;;;24.85;13.85;;;;;;;9.75;74.96;100726.11;1743057;80;25709;-59
2021/09/23 00:04:35;;;;;;;21.17;12.85;;;;;;;9.77;74.97;100723.91;1745869;81;25558;-59
2021/09/23 00:07:03;;;;;;;22.52;15.43;;;;;;;9.78;74.96;100722.27;1744163;81;25425;-58
2021/09/23 00:09:30;;;;;;;21.33;14.55;;;;;;;9.80;75.06;100720.08;1747649;81;28071;-58
2021/09/23 00:11:57;;;;;;;23.90;14.70;;;;;;;9.82;75.10;100715.73;1739564;80;25873;-58
2021/09/23 00:14:24;;;;;;;22.37;13.90;;;;;;;9.84;75.13;100714.89;1751136;81;25467;-58
2021/09/23 00:16:51;;;;;;;19.82;13.13;;;;;;;9.87;75.39;100711.61;1746552;81;25705;-58
2021/09/23 00:19:18;;;;;;;20.30;13.72;;;;;;;9.87;75.35;100708.34;1722123;79;25795;-58
2021/09/23 00:21:45;;;;;;;23.00;13.93;;;;;;;9.88;75.40;100705.12;1739567;81;27653;-58
2021/09/23 00:24:12;;;;;;;20.30;13.75;;;;;;;9.89;75.62;100705.36;1744602;80;26090;-55
2021/09/23 00:26:38;;;;;;;24.10;13.40;;;;;;;9.91;75.59;100696.43;1746632;81;25546;-58
2021/09/23 00:29:05;;;;;;;21.60;14.00;;;;;;;9.91;75.41;100687.77;1744316;81;25735;-58
2021/09/23 00:31:33;;;;;;;21.62;13.58;;;;;;;9.94;75.35;100689.62;1750725;81;25826;-58
2021/09/23 00:34:00;;;;;;;22.55;13.85;;;;;;;9.94;75.51;100685.01;1741663;81;27646;-58
2021/09/23 00:36:27;;;;;;;20.48;13.90;;;;;;;9.96;75.68;100687.42;1753693;81;25770;-58
2021/09/23 00:38:53;;;;;;;25.05;13.83;;;;;;;9.97;75.42;100675.52;1745810;81;26015;-58
2021/09/23 00:41:19;;;;;;;21.50;13.53;;;;;;;9.96;75.61;100676.08;1742977;81;25524;-58
2021/09/23 00:43:47;;;;;;;25.17;13.90;;;;;;;9.94;75.49;100668.80;1745781;81;25637;-57
2021/09/23 00:46:13;;;;;;;25.50;14.70;;;;;;;9.93;75.78;100662.33;1748203;81;27442;-58
2021/09/23 00:48:40;;;;;;;23.25;13.62;;;;;;;9.91;75.73;100658.04;1749615;81;25459;-58
2021/09/23 00:51:06;;;;;;;20.12;14.05;;;;;;;9.91;75.90;100659.39;1754608;81;25668;-58
2021/09/23 00:53:33;;;;;;;18.87;13.70;;;;;;;9.90;76.03;100662.39;1747278;81;25811;-58
2021/09/23 00:55:59;;;;;;;23.57;14.15;;;;;;;9.88;76.11;100655.92;1746213;81;25740;-58
2021/09/23 00:58:25;;;;;;;22.85;14.85;;;;;;;9.89;76.18;100658.89;1742120;81;29744;-58
2021/09/23 01:00:52;;;;;;;24.43;14.85;;;;;;;9.89;76.28;100656.72;1746869;81;25464;-58
2021/09/23 01:03:18;;;;;;;20.45;14.18;;;;;;;9.89;76.44;100652.66;1745231;81;25834;-58
2021/09/23 01:05:45;;;;;;;19.55;14.10;;;;;;;9.89;76.42;100649.44;1747229;81;25798;-58
2021/09/23 01:08:11;;;;;;;19.17;13.48;;;;;;;9.90;76.37;100640.77;1739522;81;25426;-58
2021/09/23 01:10:38;;;;;;;20.50;13.55;;;;;;;9.89;76.62;100635.92;1752401;81;27524;-58
2021/09/23 01:13:05;;;;;;;25.23;14.20;;;;;;;9.89;76.75;100637.28;1750306;81;25825;-59
2021/09/23 01:15:31;;;;;;;23.55;14.40;;;;;;;9.88;76.88;100627.55;1752504;81;25882;-58
2021/09/23 01:17:57;;;;;;;19.23;12.90;;;;;;;9.90;76.90;100625.91;1749715;81;25511;-58
2021/09/23 01:20:24;;;;;;;19.50;12.50;;;;;;;9.89;76.71;100621.59;1743940;81;25722;-58
2021/09/23 01:22:51;;;;;;;20.95;13.08;;;;;;;9.88;76.95;100618.09;1747576;81;27494;-59
2021/09/23 01:25:22;;;;;;;25.25;13.10;;;;;;;9.86;76.80;100607.34;1749056;81;25835;-58
2021/09/23 01:27:50;;;;;;;21.12;13.43;;;;;;;9.86;76.87;100602.73;1747443;80;25521;-58
2021/09/23 01:30:17;;;;;;;21.00;12.80;;;;;;;9.84;77.26;100596.83;1745853;81;25863;-58
2021/09/23 01:32:44;;;;;;;22.45;12.25;;;;;;;9.83;77.25;100594.42;1751675;81;25717;-59
2021/09/23 01:35:11;;;;;;;18.80;12.82;;;;;;;9.81;77.49;100587.17;1747122;81;27579;-59
2021/09/23 01:37:38;;;;;;;19.42;12.28;;;;;;;9.78;77.37;100589.91;1732895;81;26434;-58
2021/09/23 01:40:08;;;;;;;19.40;12.30;;;;;;;9.75;77.43;100585.64;1722477;81;25880;-58
2021/09/23 01:42:34;;;;;;;19.73;12.07;;;;;;;9.73;77.65;100583.23;1740778;81;25600;-60
2021/09/23 01:45:01;;;;;;;22.87;12.47;;;;;;;9.73;77.74;100576.48;1749156;81;25461;-58
2021/09/23 01:47:28;;;;;;;19.32;12.65;;;;;;;9.71;77.96;100576.78;1743016;81;27408;-59
2021/09/23 01:49:55;;;;;;;19.90;12.80;;;;;;;9.70;77.96;100568.44;1744766;81;25489;-59
2021/09/23 01:52:21;;;;;;;23.12;11.97;;;;;;;9.69;78.09;100566.82;1759953;81;25514;-59
2021/09/23 01:54:48;;;;;;;19.50;12.95;;;;;;;9.66;78.22;100566.05;1743652;81;27697;-59
2021/09/23 01:57:15;;;;;;;19.98;12.88;;;;;;;9.63;78.50;100549.09;1747485;81;25840;-59
2021/09/23 01:59:42;;;;;;;21.45;12.03;;;;;;;9.61;78.42;100551.29;1738609;81;27608;-59
2021/09/23 02:02:08;;;;;;;19.25;12.93;;;;;;;9.60;78.66;100548.87;1742218;81;25645;-59
2021/09/23 02:04:35;;;;;;;19.67;12.60;;;;;;;9.58;78.72;100557.83;1751295;81;25511;-59
2021/09/23 02:07:04;;;;;;;19.25;12.45;;;;;;;9.57;78.88;100550.81;1757008;80;25811;-59
2021/09/23 02:09:32;;;;;;;18.42;12.82;;;;;;;9.54;78.93;100554.36;1750745;81;25462;-58
2021/09/23 02:12:03;;;;;;;18.07;13.35;;;;;;;9.53;79.29;100551.43;1743819;81;27516;-58
2021/09/23 02:14:30;;;;;;;16.80;12.80;;;;;;;9.52;79.22;100549.02;1722741;81;25631;-58
2021/09/23 02:16:56;;;;;;;18.62;13.28;;;;;;;9.50;79.33;100552.02;1745487;81;25611;-58
2021/09/23 02:19:23;;;;;;;19.65;13.28;;;;;;;9.49;79.48;100553.09;1742917;81;25891;-59
2021/09/23 02:21:50;;;;;;;19.50;13.62;;;;;;;9.48;79.55;100555.56;1744470;81;25938;-59
2021/09/23 02:24:16;;;;;;;20.15;13.98;;;;;;;9.47;79.68;100545.85;1742055;81;27466;-59
2021/09/23 02:26:43;;;;;;;17.70;13.78;;;;;;;9.47;79.73;100547.76;1743985;81;25483;-59
2021/09/23 02:29:10;;;;;;;20.35;13.22;;;;;;;9.48;79.84;100539.89;1745971;81;25895;-59
2021/09/23 02:31:36;;;;;;;25.35;14.87;;;;;;;9.46;79.84;100546.94;1740094;81;25747;-58
2021/09/23 02:34:02;;;;;;;23.67;15.05;;;;;;;9.44;79.93;100551.04;1743985;81;25473;-59
2021/09/23 02:36:28;;;;;;;22.00;14.20;;;;;;;9.44;80.02;100545.64;1748255;81;27476;-59
2021/09/23 02:38:55;;;;;;;22.22;14.50;;;;;;;9.45;80.41;100552.63;1720397;82;25850;-59
2021/09/23 02:41:21;;;;;;;21.23;14.78;;;;;;;9.45;80.26;100541.83;1745440;81;25636;-59
2021/09/23 02:43:48;;;;;;;22.35;14.20;;;;;;;9.46;80.17;100536.13;1743442;81;25605;-59
2021/09/23 02:46:14;;;;;;;20.35;14.38;;;;;;;9.47;80.07;100528.86;1718643;81;25829;-59
2021/09/23 02:48:40;;;;;;;20.65;14.28;;;;;;;9.47;80.41;100531.00;1747117;81;27588;-59
2021/09/23 02:51:09;;;;;;;22.42;14.55;;;;;;;9.46;80.51;100529.38;1745939;81;26013;-58
2021/09/23 02:53:35;;;;;;;24.15;14.63;;;;;;;9.44;80.38;100534.28;1754704;81;25390;-57
2021/09/23 02:56:01;;;;;;;22.60;13.35;;;;;;;9.44;80.77;100525.39;1745392;81;25796;-57
2021/09/23 02:58:27;;;;;;;22.67;15.70;;;;;;;9.43;81.03;100529.17;1746322;81;25793;-58
2021/09/23 03:00:54;;;;;;;24.27;14.73;;;;;;;9.41;80.95;100533.52;1744484;81;27483;-59
2021/09/23 03:03:20;;;;;;;22.65;15.80;;;;;;;9.41;80.74;100528.12;1742523;81;27322;-56
2021/09/23 03:05:46;;;;;;;21.68;15.20;;;;;;;9.41;80.93;100523.27;1746102;81;25744;-57
2021/09/23 03:08:13;;;;;;;32.20;18.50;;;;;;;9.39;81.08;100519.52;1745662;81;25754;-58
2021/09/23 03:10:39;;;;;;;23.77;15.78;;;;;;;9.40;81.23;100526.53;1721413;81;25697;-57
2021/09/23 03:13:06;;;;;;;28.92;15.53;;;;;;;9.41;81.25;100527.33;1745447;81;27534;-57
2021/09/23 03:15:33;;;;;;;21.68;15.23;;;;;;;9.41;81.12;100525.97;1753099;81;25938;-58
2021/09/23 03:17:59;;;;;;;25.62;17.05;;;;;;;9.40;81.27;100522.48;1750156;80;25732;-57
2021/09/23 03:20:26;;;;;;;24.60;17.05;;;;;;;9.42;81.64;100528.38;1748090;81;25496;-58
2021/09/23 03:22:53;;;;;;;27.27;18.40;;;;;;;9.42;81.71;100524.89;1724145;81;25551;-58
2021/09/23 03:25:21;;;;;;;28.55;16.70;;;;;;;9.41;81.65;100517.88;1758209;81;27602;-58
2021/09/23 03:27:50;;;;;;;22.73;15.88;;;;;;;9.41;81.75;100511.92;1738417;81;26232;-59
2021/09/23 03:30:17;;;;;;;22.75;16.02;;;;;;;9.43;81.65;100506.23;1744527;81;25542;-59
2021/09/23 03:32:44;;;;;;;27.17;17.02;;;;;;;9.42;81.83;100503.30;1744871;81;25833;-58
2021/09/23 03:35:11;;;;;;;26.30;17.10;;;;;;;9.41;81.95;100490.88;1747190;81;25855;-59
2021/09/23 03:37:37;;;;;;;25.30;16.57;;;;;;;9.40;81.99;100488.73;1743627;81;27452;-59
2021/09/23 03:40:07;;;;;;;28.35;17.57;;;;;;;9.38;82.06;100484.72;1747212;81;25810;-59
2021/09/23 03:42:33;;;;;;;;;;;;;;;9.35;82.07;100471.27;1750258;81;25489;-59
2021/09/23 03:45:00;;;;;;;29.98;17.57;;;;;;;9.35;82.24;100485.56;1749897;81;26452;-59
2021/09/23 03:47:26;;;;;;;25.52;16.67;;;;;;;9.34;82.56;100480.45;1744861;81;25917;-60
2021/09/23 03:49:53;;;;;;;26.23;17.07;;;;;;;9.33;82.20;100472.92;1747871;81;27578;-59
2021/09/23 03:52:19;;;;;;;29.87;17.27;;;;;;;9.34;82.27;100469.10;1745754;81;25456;-59
2021/09/23 03:54:46;;;;;;;26.75;18.02;;;;;;;9.31;82.37;100461.63;1752609;81;25398;-59
2021/09/23 03:57:13;;;;;;;25.15;17.07;;;;;;;9.31;82.70;100454.88;1741390;81;25710;-59
2021/09/23 03:59:39;;;;;;;30.37;17.80;;;;;;;9.27;82.70;100456.55;1741289;81;25484;-59
2021/09/23 04:02:06;;;;;;;30.97;18.07;;;;;;;9.28;82.75;100454.64;1743756;81;29801;-59
2021/09/23 04:04:33;;;;;;;31.07;18.70;;;;;;;9.27;83.12;100451.14;1751214;81;25619;-59
2021/09/23 04:07:00;;;;;;;32.00;18.55;;;;;;;9.25;83.00;100445.80;1748063;81;26351;-59
2021/09/23 04:09:26;;;;;;;28.42;17.82;;;;;;;9.23;83.18;100439.88;1704129;82;25915;-59
2021/09/23 04:11:52;;;;;;;27.17;17.60;;;;;;;9.23;83.37;100438.53;1742438;81;25454;-59
2021/09/23 04:14:19;;;;;;;30.45;18.60;;;;;;;9.21;83.41;100442.91;1744685;81;27457;-59
2021/09/23 04:16:48;;;;;;;27.42;18.42;;;;;;;9.21;83.49;100446.95;1751484;81;25800;-59
2021/09/23 04:19:15;;;;;;;25.70;17.45;;;;;;;9.22;83.63;100447.19;1742852;81;25739;-59
2021/09/23 04:21:42;;;;;;;30.68;17.62;;;;;;;9.23;83.94;100449.33;1722283;81;25579;-59
2021/09/23 04:24:09;;;;;;;31.45;19.12;;;;;;;9.25;83.68;100440.41;1744065;81;25790;-58
2021/09/23 04:26:36;;;;;;;34.20;18.62;;;;;;;9.25;83.86;100434.45;1747767;81;27548;-58
2021/09/23 04:29:03;;;;;;;30.48;18.73;;;;;;;9.26;84.00;100436.59;1744580;81;25462;-59
2021/09/23 04:31:30;;;;;;;29.12;18.40;;;;;;;9.27;83.97;100439.55;1741853;81;25723;-59
2021/09/23 04:33:57;;;;;;;33.15;18.95;;;;;;;9.30;84.01;100443.02;1747080;81;25565;-58
2021/09/23 04:36:24;;;;;;;32.88;18.92;;;;;;;9.31;83.94;100437.85;1741049;81;25784;-59
2021/09/23 04:38:50;;;;;;;31.35;18.98;;;;;;;9.32;84.12;100432.72;1752389;80;27496;-59
2021/09/23 04:41:16;;;;;;;29.23;18.25;;;;;;;9.32;84.09;100424.06;1748113;81;25832;-59
2021/09/23 04:43:43;;;;;;;32.45;19.27;;;;;;;9.32;84.20;100420.58;1751746;81;25812;-58
2021/09/23 04:46:09;;;;;;;30.52;17.27;;;;;;;9.35;84.11;100418.64;1751235;81;25632;-58
2021/09/23 04:48:36;;;;;;;31.05;18.90;;;;;;;9.36;84.19;100412.12;1743696;81;25495;-59
2021/09/23 04:51:03;;;;;;;29.90;18.20;;;;;;;9.37;84.43;100410.24;1719019;81;27662;-59
2021/09/23 04:53:29;;;;;;;29.12;17.25;;;;;;;9.37;84.12;100412.94;1742911;81;25929;-59
2021/09/23 04:55:56;;;;;;;28.62;17.20;;;;;;;9.36;84.14;100410.77;1722239;82;25415;-58
2021/09/23 04:58:22;;;;;;;32.70;17.80;;;;;;;9.38;84.13;100412.64;1747358;81;25607;-57
2021/09/23 05:00:49;;;;;;;26.20;17.05;;;;;;;9.38;84.21;100415.34;1746473;81;25807;-58
2021/09/23 05:03:18;;;;;;;26.02;16.87;;;;;;;9.39;84.24;100414.79;1748413;81;27463;-60
2021/09/23 05:05:44;;;;;;;30.62;19.05;;;;;;;9.40;84.38;100406.39;1749878;81;34238;-59
2021/09/23 05:08:11;;;;;;;31.45;18.55;;;;;;;9.43;84.43;100405.80;1750982;81;25784;-59
2021/09/23 05:10:38;;;;;;;34.33;18.52;;;;;;;9.46;84.43;100397.64;1747830;81;26473;-59
2021/09/23 05:13:04;;;;;;;25.68;16.48;;;;;;;9.47;84.37;100393.30;1742871;81;25739;-59
2021/09/23 05:15:32;;;;;;;29.70;17.65;;;;;;;9.51;84.35;100379.99;1742843;81;27688;-60
2021/09/23 05:18:00;;;;;;;31.90;17.20;;;;;;;9.53;84.45;100385.89;1747061;81;25821;-61
2021/09/23 05:20:27;;;;;;;28.42;17.02;;;;;;;9.54;84.35;100380.19;1744659;81;25716;-58
2021/09/23 05:22:53;;;;;;;27.67;16.93;;;;;;;9.57;84.40;100382.03;1747120;81;25694;-60
2021/09/23 05:25:21;;;;;;;30.70;17.57;;;;;;;9.57;84.22;100384.21;1717027;81;25850;-60
2021/09/23 05:27:47;;;;;;;26.57;16.52;;;;;;;9.59;84.32;100378.52;1753167;81;27443;-60
2021/09/23 05:30:14;;;;;;;25.80;16.57;;;;;;;9.59;84.13;100380.66;1740958;81;25888;-59
2021/09/23 05:32:41;;;;;;;30.55;17.73;;;;;;;9.60;84.13;100376.83;1741420;81;25688;-59
2021/09/23 05:35:10;;;;;;;26.68;16.42;;;;;;;9.61;84.10;100374.39;1724397;81;26030;-59
2021/09/23 05:37:36;;;;;;;30.25;17.15;;;;;;;9.63;84.31;100381.64;1748278;81;25605;-58
2021/09/23 05:40:05;;;;;;;26.80;16.73;;;;;;;9.63;84.32;100374.09;1744677;80;27485;-56
2021/09/23 05:42:34;;;;;;;26.93;17.32;;;;;;;9.65;84.55;100367.31;1752540;81;25904;-54
2021/09/23 05:45:02;;;;;;;;;;;;;;;9.71;84.78;100366.65;1747991;81;25830;-58
2021/09/23 05:47:29;;;;;;;25.45;15.43;;;;;;;9.74;84.72;100357.95;1751781;81;26387;-56
2021/09/23 05:49:56;;;;;;;25.37;15.88;;;;;;;9.77;84.62;100353.27;1746802;81;26102;-56
2021/09/23 05:52:22;;;;;;;24.60;15.90;;;;;;;9.82;84.73;100355.08;1743348;81;28076;-58
2021/09/23 05:54:49;;;;;;;23.15;16.25;;;;;;;9.85;84.78;100355.27;1748333;81;25594;-58
2021/09/23 05:57:22;;;;;;;26.85;16.10;;;;;;;9.88;84.84;100353.88;1741969;81;25874;-59
2021/09/23 05:59:44;;;;;;;26.50;16.40;;;;;;;9.90;84.65;100343.00;1744664;81;25832;-59
2021/09/23 06:02:11;;;;;;;27.13;15.40;;;;;;;9.94;84.61;100346.45;1742967;81;25654;-58
2021/09/23 06:04:38;;;;;;;26.68;17.10;;;;;;;9.97;84.92;100343.94;1748575;81;28223;-56
2021/09/23 06:07:04;;;;;;;23.87;16.00;;;;;;;10.00;84.61;100351.45;1748882;81;25989;-57
2021/09/23 06:09:31;;;;;;;26.95;16.55;;;;;;;10.02;84.69;100365.45;1723218;81;25681;-57
2021/09/23 06:11:57;;;;;;;26.05;15.60;;;;;;;10.06;84.71;100361.59;1720730;80;25757;-56
2021/09/23 06:14:24;;;;;;;27.35;16.85;;;;;;;10.08;84.77;100362.89;1746155;80;25857;-57
2021/09/23 06:16:50;;;;;;;32.35;16.20;;;;;;;10.10;84.87;100365.30;1742440;81;27482;-57
2021/09/23 06:19:17;;;;;;;24.25;15.98;;;;;;;10.12;84.78;100370.41;1750593;81;25884;-57
2021/09/23 06:21:43;;;;;;;24.25;15.30;;;;;;;10.12;85.31;100363.09;1744808;81;25653;-57
2021/09/23 06:24:09;;;;;;;25.68;16.17;;;;;;;10.14;84.95;100364.92;1738082;81;25838;-57
2021/09/23 06:26:36;;;;;;;26.48;15.90;;;;;;;10.18;85.01;100366.47;1748139;81;25818;-58
2021/09/23 06:29:02;;;;;;;22.82;15.05;;;;;;;10.20;85.06;100369.13;1745524;81;27557;-58
2021/09/23 06:31:29;;;;;;;27.60;15.98;;;;;;;10.21;85.17;100362.60;1746144;81;25596;-58
2021/09/23 06:33:55;;;;;;;27.42;16.23;;;;;;;10.23;85.21;100353.66;1743911;81;25818;-58
2021/09/23 06:36:21;;;;;;;29.95;16.57;;;;;;;10.26;85.28;100357.08;1742316;81;25872;-58
2021/09/23 06:38:48;;;;;;;27.42;15.88;;;;;;;10.31;85.48;100357.52;1750697;81;25599;-58
2021/09/23 06:41:14;;;;;;;26.00;15.63;;;;;;;10.31;85.38;100352.11;1744671;81;29594;-58
2021/09/23 06:43:41;;;;;;;27.30;16.25;;;;;;;10.33;85.40;100352.63;1738922;81;25841;-57
2021/09/23 06:46:13;;;;;;;28.87;17.17;;;;;;;10.35;85.48;100350.98;1729768;81;25860;-57
2021/09/23 06:48:40;;;;;;;25.85;15.68;;;;;;;10.38;85.63;100353.08;1749862;81;25657;-58
2021/09/23 06:51:07;;;;;;;25.52;14.45;;;;;;;10.43;85.69;100349.69;1743459;81;25820;-58
2021/09/23 06:53:33;;;;;;;24.82;15.93;;;;;;;10.48;85.69;100358.25;1743517;81;27464;-58
2021/09/23 06:56:00;;;;;;;25.55;15.80;;;;;;;10.51;85.69;100348.17;1703237;81;25631;-58
2021/09/23 06:58:26;;;;;;;25.82;15.65;;;;;;;10.52;85.68;100342.20;1724213;81;25821;-58
2021/09/23 07:00:55;;;;;;;24.80;14.93;;;;;;;10.52;85.59;100333.56;1727082;81;25808;-58
2021/09/23 07:03:21;;;;;;;27.62;14.85;;;;;;;10.55;85.77;100326.72;1739610;81;25485;-58
2021/09/23 07:05:48;;;;;;;25.88;15.63;;;;;;;10.58;85.81;100321.49;1742461;81;27664;-58
2021/09/23 07:08:18;;;;;;;32.55;15.90;;;;;;;10.62;85.73;100316.27;1719322;81;25859;-59
2021/09/23 07:10:44;;;;;;;25.85;15.58;;;;;;;10.65;85.74;100324.55;1744383;81;25896;-58
2021/09/23 07:13:11;;;;;;;27.45;15.38;;;;;;;10.65;85.71;100325.91;1749549;81;25523;-58
2021/09/23 07:15:40;;;;;;;24.50;14.75;;;;;;;10.70;85.83;100323.64;1745874;81;25812;-58
2021/09/23 07:18:06;;;;;;;21.62;14.15;;;;;;;10.76;85.79;100322.95;1737971;81;27479;-58
2021/09/23 07:20:33;;;;;;;25.08;15.55;;;;;;;10.77;85.87;100317.80;1742343;81;25429;-58
2021/09/23 07:22:59;;;;;;;28.75;15.38;;;;;;;10.78;85.73;100323.46;1740457;81;25450;-58
2021/09/23 07:25:26;;;;;;;25.32;14.75;;;;;;;10.79;85.84;100317.72;1748006;81;26509;-58
2021/09/23 07:27:55;;;;;;;27.00;14.95;;;;;;;10.84;85.84;100310.03;1704500;81;25814;-58
2021/09/23 07:30:22;;;;;;;27.87;15.20;;;;;;;10.87;85.90;100301.30;1747747;81;27447;-58
2021/09/23 07:32:51;;;;;;;20.40;14.28;;;;;;;10.91;85.98;100300.91;1731165;81;25830;-59
2021/09/23 07:35:18;;;;;;;27.10;16.77;;;;;;;10.98;86.33;100303.98;1741381;81;25661;-58
2021/09/23 07:37:45;;;;;;;29.72;16.65;;;;;;;11.03;86.22;100292.21;1745402;81;26307;-58
2021/09/23 07:40:13;;;;;;;29.15;16.97;;;;;;;11.13;86.54;100293.28;1744714;81;25786;-58
2021/09/23 07:42:40;;;;;;;25.17;15.48;;;;;;;11.27;86.65;100289.14;1727565;81;27698;-59
2021/09/23 07:45:09;;;;;;;26.52;15.98;;;;;;;11.38;86.62;100288.30;1745277;81;25860;-58
2021/09/23 07:47:36;;;;;;;31.80;18.40;;;;;;;11.49;86.38;100286.08;1746175;81;30400;-58
2021/09/23 07:50:04;;;;;;;29.27;16.65;;;;;;;11.58;86.02;100279.58;1745394;81;25671;-58
2021/09/23 07:52:31;;;;;;;30.00;17.48;;;;;;;11.66;85.86;100275.27;1746299;81;26154;-58
2021/09/23 07:54:57;;;;;;;31.05;18.10;;;;;;;11.80;85.92;100270.27;1743600;81;28249;-58
2021/09/23 07:57:24;;;;;;;28.20;16.80;;;;;;;11.89;85.62;100256.98;1748695;81;25918;-58
2021/09/23 07:59:51;;;;;;;28.47;17.10;;;;;;;11.96;85.26;100252.47;1739758;81;25471;-58
2021/09/23 08:02:17;;;;;;;32.40;19.60;;;;;;;12.07;85.34;100261.06;1746352;81;26095;-58
2021/09/23 08:04:44;;;;;;;31.07;18.82;;;;;;;12.20;85.20;100268.24;1737711;81;25855;-57
2021/09/23 08:07:14;;;;;;;29.52;18.40;;;;;;;12.25;84.78;100259.94;1747266;81;27482;-57
2021/09/23 08:09:38;;;;;;;38.08;19.40;;;;;;;12.41;84.94;100253.48;1743556;81;25676;-56
2021/09/23 08:12:07;;;;;;;35.83;19.23;;;;;;;12.51;84.50;100259.09;1745049;81;25664;-58
2021/09/23 08:14:33;;;;;;;35.85;18.40;;;;;;;12.56;84.04;100252.72;1728385;81;25670;-58
2021/09/23 08:17:00;;;;;;;34.58;19.32;;;;;;;12.59;83.55;100258.86;1743285;81;25840;-58
2021/09/23 08:19:26;;;;;;;34.55;19.70;;;;;;;12.63;83.52;100252.47;1746268;81;29671;-58
2021/09/23 08:21:53;;;;;;;32.10;20.48;;;;;;;12.71;83.61;100253.55;1747910;81;25852;-59
2021/09/23 08:24:20;;;;;;;29.32;18.85;;;;;;;12.84;83.62;100247.70;1747351;81;25738;-59
2021/09/23 08:26:47;;;;;;;30.02;19.12;;;;;;;12.96;84.11;100243.73;1729340;81;26185;-59
2021/09/23 08:29:13;;;;;;;39.08;19.25;;;;;;;13.22;84.01;100243.59;1749352;81;25594;-59
2021/09/23 08:31:40;;;;;;;33.02;19.87;;;;;;;13.38;83.20;100241.16;1746009;81;27631;-59
2021/09/23 08:34:07;;;;;;;32.33;19.98;;;;;;;13.52;82.41;100239.55;1744565;81;25781;-59
2021/09/23 08:36:34;;;;;;;32.73;19.17;;;;;;;13.55;81.96;100244.33;1744874;81;25665;-58
2021/09/23 08:39:01;;;;;;;36.40;19.23;;;;;;;13.67;82.00;100235.42;1742132;81;26034;-60
2021/09/23 08:41:28;;;;;;;38.38;20.43;;;;;;;13.78;81.94;100234.48;1741766;81;26797;-58
2021/09/23 08:43:55;;;;;;;35.13;19.62;;;;;;;13.93;81.95;100231.16;1743027;81;27477;-58
2021/09/23 08:46:22;;;;;;;32.45;19.75;;;;;;;14.03;81.07;100231.33;1743848;81;25685;-58
2021/09/23 08:48:51;;;;;;;32.40;18.87;;;;;;;14.06;80.74;100226.55;1733827;81;25816;-57
2021/09/23 08:51:20;;;;;;;29.30;17.45;;;;;;;14.19;81.08;100232.28;1725397;81;25846;-58
2021/09/23 08:53:46;;;;;;;33.10;19.48;;;;;;;14.41;81.71;100228.95;1742885;81;25612;-58
2021/09/23 08:56:14;;;;;;;31.05;18.62;;;;;;;14.65;81.05;100226.87;1746379;81;27574;-57
2021/09/23 08:58:41;;;;;;;32.98;17.95;;;;;;;14.95;81.33;100211.72;1744917;81;25864;-57
2021/09/23 09:01:18;;;;;;;32.13;18.65;;;;;;;15.37;81.29;100208.71;1747716;81;25395;-57
2021/09/23 09:03:45;;;;;;;28.40;16.95;;;;;;;15.69;78.35;100206.94;1737763;81;25825;-55
2021/09/23 09:06:13;;;;;;;29.27;16.30;;;;;;;15.72;77.27;100187.74;1741940;81;25462;-58
2021/09/23 09:08:42;;;;;;;22.27;15.17;;;;;;;15.77;77.05;100186.16;1747221;81;27557;-57
2021/09/23 09:11:13;;;;;;;27.30;15.70;;;;;;;15.91;77.68;100178.16;1695025;83;25843;-58
2021/09/23 09:13:43;;;;;;;27.87;15.25;;;;;;;16.16;76.70;100170.66;1681650;83;25441;-57
2021/09/23 09:16:17;;;;;;;24.25;14.45;;;;;;;16.17;75.89;100166.77;1699167;83;26473;-58
2021/09/23 09:18:46;;;;;;;29.72;14.47;;;;;;;16.32;76.80;100157.02;1742269;81;25438;-59
2021/09/23 09:21:16;;;;;;;27.45;14.83;;;;;;;16.44;75.19;100150.11;1732981;81;27956;-59
2021/09/23 09:23:50;;;;;;;24.75;12.98;;;;;;;16.48;75.05;100151.56;1739272;81;25511;-58
2021/09/23 09:26:35;;;;;;;25.90;12.23;;;;;;;16.49;74.23;100139.51;1748963;81;25887;-59
2021/09/23 09:29:06;;;;;;;25.97;11.53;;;;;;;16.52;73.85;100138.81;1729223;81;25829;-58
2021/09/23 09:31:34;;;;;;;26.12;12.15;;;;;;;16.59;73.25;100130.20;1748061;81;25751;-55
2021/09/23 09:34:04;;;;;;;21.27;11.47;;;;;;;16.57;72.98;100133.87;1747063;81;27382;-56
2021/09/23 09:36:37;;;;;;;28.98;11.95;;;;;;;16.52;72.03;100131.98;1741832;81;25917;-55
2021/09/23 09:39:14;;;;;;;22.65;12.45;;;;;;;16.50;72.97;100124.14;1748971;81;25468;-59
2021/09/23 09:41:52;;;;;;;22.22;11.38;;;;;;;16.56;72.45;100122.71;1743506;81;25464;-59
2021/09/23 09:44:19;;;;;;;19.25;10.63;;;;;;;16.48;71.98;100114.70;1747414;81;25750;-58
2021/09/23 09:46:53;;;;;;;20.15;11.18;;;;;;;16.32;71.44;100103.80;1747959;81;27101;-58
2021/09/23 09:49:22;;;;;;;22.37;11.20;;;;;;;16.22;71.80;100101.02;1737095;81;25881;-58
2021/09/23 09:51:53;;;;;;;17.70;10.48;;;;;;;16.20;72.21;100089.67;1741193;81;25891;-55
2021/09/23 09:54:21;;;;;;;21.05;10.95;;;;;;;16.22;72.17;100077.24;1738292;81;25690;-58
2021/09/23 09:57:01;;;;;;;17.90;10.23;;;;;;;16.23;71.79;100072.59;1715164;81;26044;-58
2021/09/23 09:59:28;;;;;;;16.50;10.43;;;;;;;16.43;72.34;100068.02;1730976;81;27320;-57
2021/09/23 10:01:57;;;;;;;20.68;9.25;;;;;;;16.61;72.45;100066.47;1749209;81;25788;-56
2021/09/23 10:04:30;;;;;;;21.10;9.90;;;;;;;16.79;72.66;100067.47;1748547;81;25678;-57
2021/09/23 10:07:02;;;;;;;16.07;9.45;;;;;;;16.96;71.94;100062.99;1746427;80;25917;-57
2021/09/23 10:09:32;;;;;;;18.25;10.28;;;;;;;17.22;72.05;100053.37;1748077;81;25432;-57
2021/09/23 10:12:00;;;;;;;17.52;10.55;;;;;;;17.48;72.02;100056.80;1742438;81;27294;-57
2021/09/23 10:14:28;;;;;;;21.15;9.10;;;;;;;17.67;70.55;100056.56;1725591;81;25723;-56
2021/09/23 10:16:55;;;;;;;16.77;9.05;;;;;;;17.74;69.56;100053.40;1742090;81;25390;-57
2021/09/23 10:19:23;;;;;;;18.65;9.65;;;;;;;17.95;70.05;100059.64;1743745;81;26103;-55
2021/09/23 10:21:51;;;;;;;16.85;8.48;;;;;;;18.09;70.09;100059.30;1712874;83;25474;-57
2021/09/23 10:24:19;;;;;;;21.35;9.65;;;;;;;18.23;69.21;100042.30;1734606;81;28338;-58
2021/09/23 10:28:01;;;;;;;14.95;9.75;;;;;;;18.31;68.50;100041.86;1905197;74;25544;-59
2021/09/23 10:30:33;;;;;;;18.23;9.90;;;;;;;18.52;68.87;100031.02;1789428;80;25821;-58
2021/09/23 10:33:02;;;;;;;15.58;8.33;;;;;;;18.90;67.63;100014.94;1810380;79;27519;-57
2021/09/23 10:35:30;;;;;;;16.77;9.15;;;;;;;18.98;67.24;100012.47;1810402;79;25533;-59
2021/09/23 10:38:01;;;;;;;16.27;9.45;;;;;;;19.04;66.64;99995.92;1789279;80;25439;-58
2021/09/23 10:40:30;;;;;;;17.60;9.30;;;;;;;19.04;66.03;99994.55;1804178;79;25689;-56
2021/09/23 10:43:07;;;;;;;15.88;8.15;;;;;;;18.89;64.44;99998.28;1789535;80;25620;-57
2021/09/23 10:45:35;;;;;;;16.75;9.50;;;;;;;18.66;64.82;99991.48;1803940;79;27484;-55
2021/09/23 10:48:03;;;;;;;12.47;8.78;;;;;;;18.47;64.26;99995.95;1789447;80;25445;-57
2021/09/23 10:50:37;;;;;;;22.35;9.40;;;;;;;18.24;64.66;99980.16;1804176;79;25632;-58
2021/09/23 10:53:06;;;;;;;16.25;8.08;;;;;;;18.17;65.36;99977.32;1789313;79;25601;-61
2021/09/23 10:55:37;;;;;;;18.10;9.18;;;;;;;18.07;64.89;99963.67;1810620;79;25483;-62
2021/09/23 10:58:07;;;;;;;18.10;9.60;;;;;;;17.98;65.48;99968.59;1810372;79;27585;-58
2021/09/23 11:00:36;;;;;;;17.42;8.73;;;;;;;17.82;64.71;99974.19;1778256;79;25748;-58
2021/09/23 11:03:10;;;;;;;17.63;8.47;;;;;;;17.60;65.00;99977.13;1789700;80;25427;-58
2021/09/23 11:05:39;;;;;;;14.50;8.10;;;;;;;17.42;65.73;99969.41;1810356;78;25619;-58
2021/09/23 11:08:10;;;;;;;16.35;8.10;;;;;;;17.33;66.26;99964.73;1779333;79;25580;-57
2021/09/23 11:10:43;;;;;;;11.93;7.75;;;;;;;17.31;66.78;99966.46;1810450;79;27706;-58
2021/09/23 11:13:14;;;;;;;13.65;7.42;;;;;;;17.29;67.14;99957.84;1778424;79;25782;-58
2021/09/23 11:15:43;;;;;;;17.57;7.75;;;;;;;17.29;67.15;99957.06;1810174;79;25452;-58
2021/09/23 11:18:11;;;;;;;14.18;8.00;;;;;;;17.30;67.66;99951.81;1810408;79;25445;-59